Time;durP1;ratioP1;P1;durP2;ratioP2;P2;SDS_P1;SDS_P2;PMS_P1;PMS_P2;Temp;Humidity;BMP_temperature;BMP_pressure;BME280_temperature;BME280_humidity;BME280_pressure;Samples;Min_cycle;Max_cycle;Signal;HPM_P1;HPM_P2
2022/01/01 00:00:02;;;;;;;34.72;21.35;;;9.20;99.90;;;8.74;100.00;98232.25;5015782;28;20036;-39
2022/01/01 00:02:28;;;;;;;25.42;15.00;;;9.20;99.90;;;8.77;100.00;98233.09;5001040;28;20088;-43
2022/01/01 00:04:54;;;;;;;21.40;14.10;;;9.20;99.90;;;8.85;100.00;98242.63;5019351;28;20562;-36
2022/01/01 00:07:20;;;;;;;16.77;11.77;;;9.30;99.90;;;8.88;100.00;98238.19;5021757;28;20041;-40
2022/01/01 00:09:46;;;;;;;16.00;10.52;;;9.40;99.90;;;8.93;100.00;98240.72;5018498;28;20093;-37
2022/01/01 00:12:12;;;;;;;12.10;9.15;;;9.40;99.90;;;8.97;100.00;98245.03;5018777;28;20036;-36
2022/01/01 00:14:38;;;;;;;13.40;9.93;;;9.50;99.90;;;8.94;100.00;98238.06;5021180;28;20434;-40
2022/01/01 00:17:06;;;;;;;14.35;9.63;;;9.50;99.90;;;9.01;100.00;98243.22;5020790;28;20120;-36
2022/01/01 00:19:32;;;;;;;10.73;7.07;;;9.50;99.90;;;9.00;100.00;98238.84;5022031;28;20498;-37
2022/01/01 00:21:59;;;;;;;9.30;6.32;;;9.60;99.90;;;9.11;100.00;98253.53;5021544;28;20061;-37
2022/01/01 00:24:25;;;;;;;8.90;6.15;;;9.60;99.90;;;9.12;100.00;98252.66;5017767;28;20111;-36
2022/01/01 00:26:51;;;;;;;9.70;5.47;;;9.70;99.90;;;9.20;100.00;98244.63;5023947;28;20107;-40
2022/01/01 00:29:18;;;;;;;7.05;5.22;;;9.70;99.90;;;9.25;100.00;98245.41;5022537;28;20033;-40
2022/01/01 00:31:44;;;;;;;13.65;9.35;;;9.80;99.90;;;9.29;100.00;98247.09;5021891;28;20060;-41
2022/01/01 00:34:10;;;;;;;18.00;10.85;;;9.80;99.90;;;9.32;100.00;98251.44;5019902;28;20086;-42
2022/01/01 00:36:35;;;;;;;14.35;9.68;;;9.80;99.90;;;9.36;100.00;98253.13;5022364;28;20033;-40
2022/01/01 00:39:02;;;;;;;14.07;9.75;;;9.90;99.90;;;9.34;100.00;98257.53;5029178;28;20037;-36
2022/01/01 00:41:28;;;;;;;12.68;7.97;;;9.80;99.90;;;9.33;100.00;98256.69;5023615;28;20111;-37
2022/01/01 00:43:53;;;;;;;10.20;6.80;;;9.80;99.90;;;9.36;100.00;98256.59;5021513;28;20029;-39
2022/01/01 00:46:19;;;;;;;9.18;6.07;;;9.90;99.90;;;9.37;100.00;98254.88;5025249;28;20486;-38
2022/01/01 00:48:45;;;;;;;8.60;5.57;;;9.90;99.90;;;9.35;100.00;98256.66;5024131;28;20032;-35
2022/01/01 00:51:10;;;;;;;10.55;6.63;;;9.90;99.90;;;9.41;100.00;98256.53;5030612;28;20037;-36
2022/01/01 00:53:36;;;;;;;11.32;7.70;;;9.90;99.90;;;9.43;100.00;98259.16;5024382;28;20033;-41
2022/01/01 00:56:02;;;;;;;21.63;11.75;;;9.90;99.90;;;9.48;100.00;98257.31;5022928;28;20035;-35
2022/01/01 00:58:27;;;;;;;17.85;10.60;;;9.90;99.90;;;9.49;100.00;98257.28;5028917;28;20040;-38
2022/01/01 01:00:53;;;;;;;13.63;7.13;;;10.00;99.90;;;9.52;100.00;98257.19;5017889;28;20049;-36
2022/01/01 01:03:19;;;;;;;7.38;5.85;;;10.00;99.90;;;9.54;100.00;98258.03;5025263;28;20674;-36
2022/01/01 01:05:46;;;;;;;8.40;5.40;;;10.10;99.90;;;9.54;100.00;98258.03;5026215;28;20032;-38
2022/01/01 01:08:15;;;;;;;6.63;4.57;;;10.00;99.90;;;9.62;100.00;98271.06;5027792;28;20022;-36
2022/01/01 01:10:44;;;;;;;7.05;4.60;;;10.10;99.90;;;9.65;100.00;98263.09;5021166;28;20040;-40
2022/01/01 01:13:10;;;;;;;9.80;5.05;;;10.10;99.90;;;9.68;100.00;98259.53;5016074;28;20565;-37
2022/01/01 01:15:36;;;;;;;7.47;4.70;;;10.20;99.90;;;9.65;100.00;98260.44;5021916;28;20030;-38
2022/01/01 01:18:06;;;;;;;9.90;5.78;;;10.10;99.90;;;9.62;100.00;98264.91;5018711;28;20045;-37
2022/01/01 01:20:32;;;;;;;11.40;5.20;;;10.10;99.90;;;9.61;100.00;98263.19;5025314;28;20045;-38
2022/01/01 01:22:58;;;;;;;9.18;6.20;;;10.10;99.90;;;9.54;100.00;98262.44;5022311;28;20030;-39
2022/01/01 01:25:29;;;;;;;9.05;5.47;;;10.10;99.90;;;9.53;100.00;98268.63;5026412;28;20036;-37
2022/01/01 01:27:55;;;;;;;14.50;6.15;;;10.10;99.90;;;9.52;100.00;98267.72;5023772;28;20032;-39
2022/01/01 01:30:22;;;;;;;10.48;5.22;;;10.00;99.90;;;9.50;100.00;98263.41;5022939;28;20134;-39
2022/01/01 01:32:48;;;;;;;11.18;6.32;;;10.00;99.90;;;9.37;100.00;98246.97;5026492;28;20024;-40
2022/01/01 01:35:14;;;;;;;7.30;5.45;;;10.00;99.90;;;9.49;100.00;98278.34;5028522;28;20542;-41
2022/01/01 01:37:41;;;;;;;10.25;6.40;;;10.00;99.90;;;9.47;100.00;98272.19;5031067;28;20020;-38
2022/01/01 01:40:08;;;;;;;13.85;7.47;;;9.90;99.90;;;9.44;100.00;98281.94;5025599;28;20646;-40
2022/01/01 01:42:34;;;;;;;15.07;6.80;;;9.90;99.90;;;9.44;100.00;98271.41;5026969;28;20029;-40
2022/01/01 01:45:03;;;;;;;10.80;6.72;;;9.90;99.90;;;9.42;100.00;98281.09;5029326;28;20395;-36
2022/01/01 01:47:31;;;;;;;8.48;6.45;;;9.90;99.90;;;9.41;100.00;98274.09;5013401;28;20037;-35
2022/01/01 01:49:59;;;;;;;9.98;6.50;;;9.90;99.90;;;9.41;100.00;98274.97;5020452;28;20025;-39
2022/01/01 01:52:31;;;;;;;10.10;6.65;;;9.90;99.90;;;9.44;100.00;98272.28;5041518;22;20049;-81
2022/01/01 01:54:57;;;;;;;12.77;7.35;;;9.90;99.90;;;9.40;100.00;98259.19;5020089;28;20052;-81
2022/01/01 01:57:25;;;;;;;11.05;7.15;;;9.90;99.90;;;9.44;100.00;98279.28;5041078;28;20037;-81
2022/01/01 01:59:52;;;;;;;12.23;7.45;;;9.90;99.90;;;9.44;100.00;98274.03;5019675;28;20044;-81
2022/01/01 02:02:18;;;;;;;13.73;8.45;;;9.90;99.90;;;9.42;100.00;98278.47;5037029;28;20418;-81
2022/01/01 02:04:44;;;;;;;15.50;7.93;;;9.90;99.90;;;9.39;100.00;98282.03;5023277;28;20029;-81
2022/01/01 02:07:11;;;;;;;15.65;9.63;;;9.80;99.90;;;9.15;100.00;98259.63;5022972;28;20463;-81
2022/01/01 02:09:38;;;;;;;15.13;9.32;;;9.80;99.90;;;9.13;100.00;98267.56;5016978;28;20112;-81
2022/01/01 02:12:06;;;;;;;16.10;9.48;;;9.70;99.90;;;9.13;100.00;98266.69;5008145;28;20029;-81
2022/01/01 02:15:10;;;;;;;15.50;9.75;;;9.70;99.90;;;9.09;100.00;98257.97;5013576;28;20410;-81
2022/01/01 02:17:36;;;;;;;15.10;9.55;;;9.70;99.90;;;9.14;100.00;98278.97;5028953;28;20034;-81
2022/01/01 02:20:18;;;;;;;15.20;8.90;;;9.60;99.90;;;9.15;100.00;98286.84;5010090;28;20534;-81
2022/01/01 02:22:50;;;;;;;14.52;8.43;;;9.70;99.90;;;9.11;100.00;98281.63;5018758;28;20048;-81
2022/01/01 02:25:19;;;;;;;14.30;8.57;;;9.70;99.90;;;9.08;100.00;98279.94;5026123;28;20037;-81
2022/01/01 02:27:45;;;;;;;12.50;7.90;;;9.70;99.90;;;9.16;100.00;98283.28;5015315;28;20041;-81
2022/01/01 02:30:14;;;;;;;13.82;7.70;;;9.70;99.90;;;9.00;100.00;98252.00;5030168;28;20048;-81
2022/01/01 02:32:40;;;;;;;11.80;7.18;;;9.70;99.90;;;9.09;100.00;98265.88;5000534;28;20065;-81
2022/01/01 02:35:09;;;;;;;10.52;7.35;;;9.70;99.90;;;9.13;100.00;98278.09;5010698;28;20355;-81
2022/01/01 02:37:36;;;;;;;14.73;7.90;;;9.70;99.90;;;9.03;100.00;98265.13;5030263;28;20026;-81
2022/01/01 02:40:04;;;;;;;12.30;7.30;;;9.60;99.90;;;9.08;100.00;98272.03;5029207;28;20025;-81
2022/01/01 02:42:29;;;;;;;12.18;6.80;;;9.60;99.90;;;9.09;100.00;98278.16;5013628;28;20037;-81
2022/01/01 02:44:55;;;;;;;10.07;6.97;;;9.60;99.90;;;9.11;100.00;98284.25;5031037;28;20029;-81
2022/01/01 02:47:21;;;;;;;14.88;8.43;;;9.60;99.90;;;8.97;100.00;98269.59;5015568;28;20056;-81
2022/01/01 02:49:47;;;;;;;13.05;7.68;;;9.60;99.90;;;9.06;100.00;98280.84;5008858;28;20041;-81
2022/01/01 02:52:13;;;;;;;12.05;6.95;;;9.50;99.90;;;9.04;100.00;98280.00;5006795;28;20044;-81
2022/01/01 02:54:39;;;;;;;10.27;7.32;;;9.50;99.90;;;9.04;100.00;98272.09;4995890;28;20743;-80
2022/01/01 02:57:04;;;;;;;13.48;8.98;;;9.60;99.90;;;9.03;100.00;98268.63;5009822;28;20567;-81
2022/01/01 02:59:30;;;;;;;15.38;8.65;;;9.60;99.90;;;9.02;100.00;98252.84;5010113;28;20056;-81
2022/01/01 03:01:56;;;;;;;15.02;9.38;;;9.60;99.90;;;9.03;100.00;98254.59;5026730;28;20080;-81
2022/01/01 03:04:22;;;;;;;14.27;9.13;;;9.60;99.90;;;9.13;100.00;98266.69;5025211;28;20030;-81
2022/01/01 03:06:53;;;;;;;14.45;8.73;;;9.60;99.90;;;9.17;100.00;98265.75;5007653;28;20024;-81
2022/01/01 03:09:20;;;;;;;12.15;8.23;;;9.70;99.90;;;9.21;100.00;98258.69;5009165;28;20323;-81
2022/01/01 03:11:46;;;;;;;15.13;8.02;;;9.70;99.90;;;9.22;100.00;98256.00;5007814;28;20449;-81
2022/01/01 03:14:17;;;;;;;13.52;8.48;;;9.70;99.90;;;9.27;100.00;98259.41;5011033;28;20034;-81
2022/01/01 03:16:47;;;;;;;9.20;6.57;;;9.70;99.90;;;9.21;100.00;98243.75;5027349;28;20151;-81
2022/01/01 03:19:13;;;;;;;11.05;6.55;;;9.80;99.90;;;9.29;100.00;98251.50;5026826;28;20410;-81
2022/01/01 03:21:39;;;;;;;12.85;6.40;;;9.80;99.90;;;9.32;100.00;98262.84;5010447;28;20025;-81
2022/01/01 03:24:06;;;;;;;19.38;8.32;;;9.80;99.90;;;9.39;100.00;98262.75;5010246;28;20052;-81
2022/01/01 03:26:32;;;;;;;30.02;13.90;;;9.80;99.90;;;9.39;100.00;98266.22;4992259;28;20029;-81
2022/01/01 03:28:58;;;;;;;28.90;13.73;;;9.90;99.90;;;9.32;100.00;98256.72;5007907;28;20041;-80
2022/01/01 03:31:25;;;;;;;33.63;16.10;;;9.90;99.90;;;9.36;100.00;98253.97;5006131;28;20026;-80
2022/01/01 03:33:52;;;;;;;29.13;15.63;;;9.90;99.90;;;9.25;100.00;98242.78;5007170;28;20045;-80
2022/01/01 03:36:18;;;;;;;46.92;21.45;;;9.90;99.90;;;9.28;100.00;98249.78;4991406;28;20029;-80
2022/01/01 03:38:43;;;;;;;46.45;21.15;;;9.80;99.90;;;9.21;100.00;98238.47;5007072;28;20419;-80
2022/01/01 03:41:09;;;;;;;51.63;21.63;;;9.80;99.90;;;9.17;100.00;98247.34;5026233;28;20068;-80
2022/01/01 03:43:35;;;;;;;58.60;24.33;;;9.80;99.90;;;9.23;100.00;98263.00;5009697;28;20384;-81
2022/01/01 03:46:01;;;;;;;44.70;21.38;;;9.80;99.90;;;9.21;100.00;98261.31;5022396;28;20029;-80
2022/01/01 03:48:27;;;;;;;66.65;26.85;;;9.70;99.90;;;9.06;100.00;98230.84;4994036;28;20425;-80
2022/01/01 03:50:52;;;;;;;65.13;28.27;;;9.70;99.90;;;9.04;100.00;98235.25;4995953;28;20028;-81
2022/01/01 03:53:18;;;;;;;58.45;23.80;;;9.70;99.90;;;9.21;100.00;98254.28;5031820;28;20033;-81
2022/01/01 03:55:44;;;;;;;33.13;17.02;;;9.70;99.90;;;9.23;100.00;98262.16;5022624;28;20037;-81
2022/01/01 03:58:10;;;;;;;22.20;11.52;;;9.70;99.90;;;9.29;100.00;98265.50;5020051;28;20038;-81
2022/01/01 04:00:39;;;;;;;17.17;10.45;;;9.70;99.90;;;9.22;100.00;98261.25;5021857;28;20044;-81
2022/01/01 04:03:10;;;;;;;15.10;9.20;;;9.70;99.90;;;9.29;100.00;98276.03;5019768;28;20037;-81
2022/01/01 04:05:38;;;;;;;20.65;10.50;;;9.80;99.90;;;9.15;100.00;98244.72;5019678;28;20132;-81
2022/01/01 04:08:04;;;;;;;17.08;8.95;;;9.80;99.90;;;9.28;100.00;98268.19;5017840;28;20031;-81
2022/01/01 04:10:31;;;;;;;19.08;10.35;;;9.80;99.90;;;9.32;100.00;98273.38;5036637;28;20049;-80
2022/01/01 04:12:58;;;;;;;16.38;8.68;;;9.80;99.90;;;9.34;100.00;98268.06;5037125;28;20412;-80
2022/01/01 04:15:28;;;;;;;15.48;8.10;;;9.80;99.90;;;9.34;100.00;98268.94;5005727;28;20420;-81
2022/01/01 04:18:00;;;;;;;11.95;6.45;;;9.80;99.90;;;9.32;100.00;98270.72;5037164;28;20103;-81
2022/01/01 04:20:27;;;;;;;10.75;6.50;;;9.80;99.90;;;9.27;100.00;98264.69;5003246;28;20037;-81
2022/01/01 04:22:54;;;;;;;9.00;5.05;;;9.80;99.90;;;9.35;100.00;98267.19;5019319;28;20030;-81
2022/01/01 04:25:22;;;;;;;8.25;4.30;;;9.80;99.90;;;9.35;100.00;98267.19;5010395;28;20038;-80
2022/01/01 04:27:49;;;;;;;6.05;3.72;;;9.80;99.90;;;9.30;100.00;98258.50;4997126;28;20037;-80
2022/01/01 04:30:15;;;;;;;7.82;4.45;;;9.80;99.90;;;9.25;100.00;98250.69;4993762;28;20160;-80
2022/01/01 04:32:40;;;;;;;8.10;5.22;;;9.80;99.90;;;9.19;100.00;98245.53;4995828;28;20140;-80
2022/01/01 04:35:07;;;;;;;8.80;5.88;;;9.80;99.90;;;9.23;100.00;98255.09;5028120;28;20060;-80
2022/01/01 04:37:33;;;;;;;9.00;6.07;;;9.70;99.90;;;9.18;100.00;98235.88;5011870;28;20040;-80
2022/01/01 04:39:59;;;;;;;8.70;5.93;;;9.70;99.90;;;9.18;100.00;98249.91;5009825;28;20033;-81
2022/01/01 04:42:30;;;;;;;10.45;6.47;;;9.70;99.90;;;9.09;100.00;98251.84;5005612;28;20030;-81
2022/01/01 04:44:55;;;;;;;10.90;7.22;;;9.60;99.90;;;8.87;100.00;98233.81;5008259;28;20036;-80
2022/01/01 04:47:21;;;;;;;11.80;7.30;;;9.40;99.90;;;8.70;100.00;98230.56;5008263;28;20387;-81
2022/01/01 04:49:47;;;;;;;15.10;8.00;;;9.30;99.90;;;8.54;100.00;98224.69;5007587;28;20034;-80
2022/01/01 04:52:13;;;;;;;11.82;7.75;;;9.10;99.90;;;8.29;100.00;98227.66;5007738;28;20022;-81
2022/01/01 04:54:41;;;;;;;11.43;6.63;;;8.90;99.90;;;8.13;100.00;98229.66;5004756;28;20064;-81
2022/01/01 04:57:08;;;;;;;9.30;6.90;;;8.70;99.90;;;7.89;100.00;98201.94;5025055;28;20041;-81
2022/01/01 04:59:35;;;;;;;9.88;6.65;;;8.50;99.90;;;7.68;100.00;98205.72;4992436;28;20041;-81
2022/01/01 05:02:01;;;;;;;11.77;7.05;;;8.40;99.90;;;7.63;100.00;98215.41;5005050;28;20055;-80
2022/01/01 05:04:27;;;;;;;10.35;6.65;;;8.30;99.90;;;7.60;100.00;98233.81;5004766;28;20067;-80
2022/01/01 05:06:53;;;;;;;10.68;6.68;;;8.10;99.90;;;7.43;100.00;98229.63;5024327;28;20018;-81
2022/01/01 05:09:20;;;;;;;14.30;7.43;;;8.00;99.90;;;7.35;100.00;98225.34;4990605;28;20061;-80
2022/01/01 05:11:47;;;;;;;9.43;6.47;;;7.90;99.90;;;7.22;100.00;98214.13;5009947;28;20029;-81
2022/01/01 05:14:14;;;;;;;10.75;6.68;;;7.80;99.90;;;7.15;100.00;98213.31;4996017;28;20450;-80
2022/01/01 05:16:40;;;;;;;7.90;5.95;;;7.70;99.90;;;7.08;100.00;98207.25;5009544;28;20037;-81
2022/01/01 05:19:06;;;;;;;10.10;5.72;;;7.60;99.90;;;7.00;100.00;98211.72;5008903;28;20560;-81
2022/01/01 05:21:34;;;;;;;9.82;5.57;;;7.60;99.90;;;6.85;100.00;98196.97;4990321;28;20070;-81
2022/01/01 05:24:03;;;;;;;9.82;5.63;;;7.50;99.90;;;6.95;100.00;98234.47;5026068;28;20037;-80
2022/01/01 05:26:28;;;;;;;8.38;5.40;;;7.50;99.90;;;6.80;100.00;98218.88;5009779;28;20280;-81
2022/01/01 05:28:54;;;;;;;9.18;5.45;;;7.40;99.90;;;6.83;100.00;98231.97;5012479;28;20061;-81
2022/01/01 05:31:20;;;;;;;6.32;4.40;;;7.40;99.90;;;6.74;100.00;98218.94;5013803;28;20466;-81
2022/01/01 05:33:47;;;;;;;6.75;4.30;;;7.40;99.90;;;6.73;100.00;98230.28;4992744;28;20033;-81
2022/01/01 05:36:14;;;;;;;6.10;3.95;;;7.30;99.90;;;6.77;100.00;98243.38;5006955;28;20332;-81
2022/01/01 05:38:41;;;;;;;6.03;4.03;;;7.30;99.90;;;6.69;100.00;98238.22;5006615;28;20521;-80
2022/01/01 05:41:07;;;;;;;4.90;3.03;;;7.30;99.90;;;6.72;100.00;98246.94;4992026;28;20152;-81
2022/01/01 05:43:33;;;;;;;5.28;3.10;;;7.30;99.90;;;6.72;100.00;98247.78;5009286;28;20105;-81
2022/01/01 05:45:59;;;;;;;5.60;2.90;;;7.30;99.90;;;6.73;100.00;98248.66;5025747;28;20596;-80
2022/01/01 05:48:24;;;;;;;4.00;2.70;;;7.30;99.90;;;6.72;100.00;98239.91;4992783;28;20084;-80
2022/01/01 05:50:50;;;;;;;5.57;3.00;;;7.30;99.90;;;6.73;100.00;98238.16;5024636;28;20037;-80
2022/01/01 05:53:17;;;;;;;4.20;3.00;;;7.40;99.90;;;6.78;100.00;98247.72;5009416;28;20446;-81
2022/01/01 05:55:43;;;;;;;4.72;2.92;;;7.40;99.90;;;6.82;100.00;98253.81;5010591;28;20048;-81
2022/01/01 05:58:09;;;;;;;4.80;3.10;;;7.40;99.90;;;6.77;100.00;98245.13;5006796;28;20064;-80
2022/01/01 06:00:35;;;;;;;5.45;3.42;;;7.40;99.90;;;6.85;100.00;98246.78;5006687;28;20061;-81
2022/01/01 06:03:01;;;;;;;8.10;4.05;;;7.50;99.90;;;7.02;100.00;98262.41;5007041;28;20461;-80
2022/01/01 06:05:28;;;;;;;8.82;3.78;;;7.60;99.90;;;7.18;100.00;98263.13;5009156;28;20565;-81
2022/01/01 06:07:55;;;;;;;5.45;3.85;;;7.70;99.90;;;7.33;100.00;98266.47;5026956;28;20036;-80
2022/01/01 06:10:22;;;;;;;5.93;3.70;;;7.90;99.90;;;7.48;100.00;98271.56;5015034;28;20042;-80
2022/01/01 06:12:48;;;;;;;9.32;3.90;;;8.00;99.90;;;7.49;100.00;98265.44;5007092;28;20037;-80
2022/01/01 06:15:14;;;;;;;8.73;3.78;;;8.20;99.90;;;7.54;100.00;98262.78;5006221;28;20034;-80
2022/01/01 06:17:40;;;;;;;7.57;3.65;;;8.20;99.90;;;7.78;100.00;98286.09;5021950;28;20034;-80
2022/01/01 06:20:06;;;;;;;4.63;3.40;;;8.30;99.90;;;7.77;100.00;98273.88;5020160;28;20579;-80
2022/01/01 06:22:31;;;;;;;5.65;3.13;;;8.50;99.90;;;7.95;100.00;98285.03;5036275;28;20052;-81
2022/01/01 06:24:57;;;;;;;4.97;3.40;;;8.50;99.90;;;8.06;100.00;98295.41;5035347;28;20090;-81
2022/01/01 06:27:23;;;;;;;6.70;3.83;;;8.60;99.90;;;8.12;100.00;98298.84;5015518;28;20084;-81
2022/01/01 06:29:50;;;;;;;6.05;3.38;;;8.70;99.90;;;8.18;100.00;98298.78;5012886;28;20064;-81
2022/01/01 06:32:15;;;;;;;6.00;3.60;;;8.70;99.90;;;8.15;100.00;98282.19;4994072;28;20056;-80
2022/01/01 06:34:41;;;;;;;5.50;3.17;;;8.80;99.90;;;8.26;100.00;98306.53;5011419;28;20029;-80
2022/01/01 06:37:07;;;;;;;5.35;3.42;;;8.80;99.90;;;8.30;100.00;98312.63;5023748;28;20388;-81
2022/01/01 06:39:32;;;;;;;6.45;4.00;;;8.90;99.90;;;8.30;100.00;98286.34;5009598;28;20057;-81
2022/01/01 06:41:58;;;;;;;5.90;3.78;;;8.90;99.90;;;8.29;100.00;98297.72;5012248;28;20029;-81
2022/01/01 06:44:24;;;;;;;4.97;3.63;;;8.90;99.90;;;8.36;100.00;98307.28;5023106;28;20061;-81
2022/01/01 06:46:49;;;;;;;7.45;3.70;;;8.90;99.90;;;8.34;100.00;98298.56;5011157;28;20029;-81
2022/01/01 06:49:15;;;;;;;6.15;3.42;;;8.90;99.90;;;8.25;100.00;98283.78;5010505;28;20037;-80
2022/01/01 06:51:41;;;;;;;5.15;3.33;;;8.90;99.90;;;8.20;100.00;98296.09;5017098;28;20030;-80
2022/01/01 06:54:07;;;;;;;5.35;3.05;;;8.80;99.90;;;8.14;100.00;98297.06;4995321;28;20033;-81
2022/01/01 06:56:32;;;;;;;5.40;3.20;;;8.70;99.90;;;8.09;100.00;98296.22;5007994;28;20025;-80
2022/01/01 06:58:58;;;;;;;5.82;3.65;;;8.70;99.90;;;8.06;100.00;98296.28;4996315;28;20091;-80
2022/01/01 07:01:24;;;;;;;4.53;3.20;;;8.60;99.90;;;8.05;100.00;98298.94;4992151;28;20040;-80
2022/01/01 07:03:49;;;;;;;5.40;3.33;;;8.60;99.90;;;8.03;100.00;98301.56;5025115;28;20056;-81
2022/01/01 07:06:15;;;;;;;4.50;2.88;;;8.60;99.90;;;7.92;100.00;98280.69;5024398;28;20268;-80
2022/01/01 07:08:41;;;;;;;7.47;3.50;;;8.50;99.90;;;8.06;100.00;98301.56;5008183;28;20368;-80
2022/01/01 07:11:07;;;;;;;5.20;3.25;;;8.60;99.90;;;7.99;100.00;98281.50;5026228;28;20088;-80
2022/01/01 07:13:32;;;;;;;5.35;2.75;;;8.60;99.90;;;7.95;100.00;98283.28;4993226;28;20081;-80
2022/01/01 07:15:58;;;;;;;4.20;2.95;;;8.60;99.90;;;8.00;100.00;98296.34;5027414;28;20037;-80
2022/01/01 07:18:24;;;;;;;4.57;2.75;;;8.50;99.90;;;7.98;100.00;98287.63;5006412;28;20026;-80
2022/01/01 07:20:50;;;;;;;5.65;3.20;;;8.50;99.90;;;7.89;100.00;98277.22;5021674;28;20676;-80
2022/01/01 07:23:16;;;;;;;5.30;2.90;;;8.50;99.90;;;7.98;100.00;98303.38;5026961;28;20033;-80
2022/01/01 07:25:41;;;;;;;4.65;2.65;;;8.50;99.90;;;7.94;100.00;98285.94;5024892;28;20033;-80
2022/01/01 07:28:09;;;;;;;4.30;2.80;;;8.50;99.90;;;8.05;100.00;98293.69;5011758;28;20470;-80
2022/01/01 07:30:35;;;;;;;3.75;2.65;;;8.60;99.90;;;8.10;100.00;98295.34;5012544;28;20032;-80
2022/01/01 07:33:01;;;;;;;4.65;2.78;;;8.70;99.90;;;8.23;100.00;98296.06;5009240;28;20034;-80
2022/01/01 07:35:27;;;;;;;3.78;2.25;;;8.70;99.90;;;8.30;100.00;98300.34;5008162;28;20041;-80
2022/01/01 07:37:52;;;;;;;5.22;3.10;;;8.80;99.90;;;8.30;100.00;98281.94;5023260;28;20395;-80
2022/01/01 07:40:19;;;;;;;4.85;2.83;;;8.90;99.90;;;8.40;100.00;98291.47;5007640;28;20495;-80
2022/01/01 07:42:46;;;;;;;5.15;2.70;;;8.90;99.90;;;8.35;100.00;98276.66;4990842;28;20029;-80
2022/01/01 07:45:12;;;;;;;4.28;2.78;;;9.00;99.90;;;8.49;100.00;98290.50;5022230;28;20421;-80
2022/01/01 07:47:38;;;;;;;4.43;2.70;;;9.10;99.90;;;8.68;100.00;98303.38;5007857;28;20057;-80
2022/01/01 07:50:06;;;;;;;3.55;2.50;;;9.20;99.90;;;8.77;100.00;98298.84;5003856;28;20163;-80
2022/01/01 07:52:32;;;;;;;4.20;2.47;;;9.30;99.90;;;8.75;100.00;98291.84;5019612;28;20033;-80
2022/01/01 07:54:58;;;;;;;3.45;2.35;;;9.30;99.90;;;8.82;100.00;98287.38;5012101;28;20415;-80
2022/01/01 07:57:23;;;;;;;3.30;2.22;;;9.30;99.90;;;8.85;100.00;98280.31;5004931;28;20085;-80
2022/01/01 07:59:49;;;;;;;4.05;2.38;;;9.40;99.90;;;8.90;100.00;98282.84;5022161;28;20486;-80
2022/01/01 08:02:15;;;;;;;3.92;2.70;;;9.40;99.90;;;8.77;100.00;98261.13;4988450;28;20041;-80
2022/01/01 08:04:40;;;;;;;4.53;2.33;;;9.40;99.90;;;8.82;100.00;98276.84;4993333;28;20033;-80
2022/01/01 08:07:06;;;;;;;3.55;2.30;;;9.40;99.90;;;8.88;100.00;98274.13;5026697;28;20119;-80
2022/01/01 08:09:32;;;;;;;3.83;2.40;;;9.40;99.90;;;8.89;100.00;98283.75;5006934;28;20399;-80
2022/01/01 08:11:58;;;;;;;2.97;1.90;;;9.40;99.90;;;8.89;100.00;98289.03;4990801;28;20116;-80
2022/01/01 08:14:24;;;;;;;3.65;2.50;;;9.40;99.90;;;8.83;100.00;98278.56;5022358;28;20033;-80
2022/01/01 08:17:00;;;;;;;3.97;2.55;;;9.40;99.90;;;8.87;100.00;98283.78;4991202;28;20036;-80
2022/01/01 08:19:27;;;;;;;4.43;2.38;;;9.40;99.90;;;8.76;100.00;98264.69;5020120;28;20056;-80
2022/01/01 08:21:55;;;;;;;3.30;2.25;;;9.30;99.90;;;8.72;100.00;98277.00;5004446;28;20041;-80
2022/01/01 08:24:22;;;;;;;3.60;2.20;;;9.20;99.90;;;8.55;100.00;98264.09;4991706;28;20033;-80
2022/01/01 08:26:48;;;;;;;2.97;2.00;;;9.20;99.90;;;8.50;100.00;98275.59;5012011;28;20033;-80
2022/01/01 08:29:14;;;;;;;3.25;2.15;;;9.10;99.90;;;8.43;100.00;98289.69;5012948;28;20545;-80
2022/01/01 08:31:40;;;;;;;4.05;2.65;;;9.00;99.90;;;8.38;100.00;98277.47;5010002;28;20038;-80
2022/01/01 08:34:06;;;;;;;4.43;2.30;;;8.90;99.90;;;8.39;100.00;98283.59;4992090;28;20040;-80
2022/01/01 08:36:32;;;;;;;3.85;2.20;;;8.90;99.90;;;8.36;100.00;98289.78;4992033;28;20034;-80
2022/01/01 08:38:57;;;;;;;4.40;2.33;;;8.90;99.90;;;8.35;100.00;98293.28;5007730;28;20073;-80
2022/01/01 08:41:25;;;;;;;2.92;2.10;;;8.90;99.90;;;8.32;100.00;98292.44;5008188;28;20501;-80
2022/01/01 08:43:51;;;;;;;3.55;2.20;;;8.90;99.90;;;8.37;100.00;98301.16;5009603;28;20091;-80
2022/01/01 08:46:17;;;;;;;5.72;2.30;;;8.90;99.90;;;8.34;100.00;98301.19;5009081;28;20033;-80
2022/01/01 08:48:42;;;;;;;5.40;2.05;;;8.90;99.90;;;8.40;100.00;98316.88;5006421;28;20071;-80
2022/01/01 08:51:28;;;;;;;3.50;2.30;;;8.90;99.90;;;8.33;100.00;98296.81;4990909;28;20040;-80
2022/01/01 08:53:53;;;;;;;3.30;2.08;;;8.90;99.90;;;8.31;100.00;98296.84;5008289;28;20056;-80
2022/01/01 08:56:19;;;;;;;3.63;2.13;;;9.00;99.90;;;8.28;100.00;98293.38;5026570;28;20453;-80
2022/01/01 08:58:46;;;;;;;3.90;2.25;;;8.90;99.90;;;8.39;100.00;98299.34;5008148;28;20036;-80
2022/01/01 09:01:12;;;;;;;2.75;1.80;;;9.00;99.90;;;8.51;100.00;98306.25;5001982;28;20057;-80
2022/01/01 09:03:38;;;;;;;3.50;2.05;;;9.00;99.90;;;8.48;100.00;98315.03;5000722;28;20125;-80
2022/01/01 09:06:05;;;;;;;3.47;1.98;;;9.00;99.90;;;8.52;100.00;98321.97;5007630;28;20112;-80
2022/01/01 09:08:35;;;;;;;4.07;2.42;;;9.10;99.90;;;8.46;100.00;98310.69;4995452;28;20030;-80
2022/01/01 09:11:02;;;;;;;3.83;2.03;;;9.10;99.90;;;8.56;100.00;98310.53;5012425;28;20479;-80
2022/01/01 09:13:28;;;;;;;2.80;2.10;;;9.10;99.90;;;8.54;100.00;98306.19;5030231;28;20038;-80
2022/01/01 09:15:54;;;;;;;3.42;1.75;;;9.10;99.90;;;8.57;100.00;98309.63;5006027;28;20021;-79
2022/01/01 09:18:20;;;;;;;2.97;2.10;;;9.20;99.90;;;8.68;100.00;98319.16;5028668;28;20025;-79
2022/01/01 09:20:46;;;;;;;3.08;1.90;;;9.20;99.90;;;8.73;100.00;98319.94;4995115;28;20030;-79
2022/01/01 09:23:13;;;;;;;4.63;2.40;;;9.30;99.90;;;8.76;100.00;98317.28;5015466;28;20033;-79
2022/01/01 09:25:39;;;;;;;3.92;2.17;;;9.40;99.90;;;8.82;100.00;98321.56;5012187;28;20033;-79
2022/01/01 09:28:04;;;;;;;2.42;1.83;;;9.40;99.90;;;8.88;100.00;98327.63;5028019;28;20395;-79
2022/01/01 09:30:30;;;;;;;2.38;1.65;;;9.40;99.90;;;8.92;100.00;98329.31;5013736;28;20049;-79
2022/01/01 09:32:56;;;;;;;3.03;1.95;;;9.40;99.90;;;8.93;100.00;98332.78;5011814;28;20022;-79
2022/01/01 09:35:22;;;;;;;3.53;1.88;;;9.50;99.90;;;8.82;100.00;98311.06;5011232;28;20049;-79
2022/01/01 09:37:47;;;;;;;3.30;1.95;;;9.50;99.90;;;8.93;100.00;98336.28;5016929;28;20037;-79
2022/01/01 09:40:13;;;;;;;3.17;1.80;;;9.50;99.90;;;9.04;100.00;98346.63;5006505;28;20030;-79
2022/01/01 09:42:40;;;;;;;5.20;1.98;;;9.50;99.90;;;9.11;100.00;98348.28;5012006;28;20109;-80
2022/01/01 09:45:07;;;;;;;2.95;2.00;;;9.60;99.90;;;9.17;100.00;98339.44;5026800;28;20042;-79
2022/01/01 09:47:33;;;;;;;2.45;1.50;;;9.70;99.90;;;9.16;100.00;98329.81;4999027;28;20449;-79
2022/01/01 09:49:59;;;;;;;3.33;1.75;;;9.80;99.90;;;9.25;100.00;98329.66;5025847;28;20530;-79
2022/01/01 09:52:25;;;;;;;2.83;1.85;;;9.80;99.90;;;9.34;100.00;98345.28;5013799;28;20033;-79
2022/01/01 09:54:51;;;;;;;2.60;1.70;;;9.90;99.90;;;9.40;100.00;98339.03;5010060;28;20354;-79
2022/01/01 09:57:17;;;;;;;3.10;1.65;;;9.90;99.90;;;9.38;100.00;98338.19;5006258;28;20305;-79
2022/01/01 09:59:43;;;;;;;3.33;1.60;;;9.90;99.90;;;9.48;100.00;98336.28;5006481;28;20044;-80
2022/01/01 10:02:09;;;;;;;3.20;1.80;;;10.00;99.90;;;9.58;100.00;98344.88;5013406;28;20037;-79
2022/01/01 10:04:42;;;;;;;4.82;1.40;;;10.10;99.90;;;9.63;100.00;98349.16;5011511;28;20037;-80
2022/01/01 10:07:08;;;;;;;2.30;1.65;;;10.10;99.90;;;9.69;100.00;98345.56;5010234;28;20598;-80
2022/01/01 10:09:37;;;;;;;2.67;1.58;;;10.20;99.90;;;9.65;100.00;98323.66;5028448;28;20052;-80
2022/01/01 10:12:06;;;;;;;2.72;1.50;;;10.30;99.90;;;9.79;100.00;98331.31;5009709;28;20025;-80
2022/01/01 10:14:44;;;;;;;3.00;1.48;;;10.30;99.90;;;9.81;100.00;98331.28;5012261;28;20033;-80
2022/01/01 10:17:17;;;;;;;2.42;1.52;;;10.30;99.90;;;9.89;100.00;98332.88;5007860;28;20076;-80
2022/01/01 10:19:44;;;;;;;2.50;1.60;;;10.40;99.90;;;9.94;100.00;98331.03;5008862;28;20035;-80